createdAt,value
2019-03-02T00:00:08.057Z,88.71
2019-03-02T00:02:41.511Z,89.25
2019-03-02T00:05:13.393Z,88.96
2019-03-02T00:07:47.791Z,89.02
2019-03-02T00:10:18.725Z,89.40
2019-03-02T00:12:50.557Z,89.57
2019-03-02T00:15:22.367Z,89.76
2019-03-02T00:17:55.086Z,89.97
2019-03-02T00:20:27.133Z,89.33
2019-03-02T00:22:58.948Z,88.85
2019-03-02T00:25:34.067Z,88.59
2019-03-02T00:28:04.380Z,88.37
2019-03-02T00:30:36.183Z,88.43
2019-03-02T00:33:08.039Z,88.28
2019-03-02T00:35:43.577Z,87.47
2019-03-02T00:38:13.328Z,87.25
2019-03-02T00:40:45.195Z,87.59
2019-03-02T00:43:17.005Z,87.82
2019-03-02T00:45:49.757Z,87.87
2019-03-02T00:48:21.614Z,87.93
2019-03-02T00:50:53.453Z,87.74
2019-03-02T00:53:25.309Z,87.81
2019-03-02T00:55:57.121Z,88.00
2019-03-02T00:58:29.821Z,88.04
2019-03-02T01:01:01.656Z,88.52
2019-03-02T01:03:34.581Z,88.70
2019-03-02T01:06:08.981Z,88.61
2019-03-02T01:08:39.966Z,88.90
2019-03-02T01:11:11.784Z,89.33
2019-03-02T01:13:43.614Z,89.09
2019-03-02T01:16:16.778Z,88.83
2019-03-02T01:18:49.019Z,88.93
2019-03-02T01:21:20.827Z,89.06
2019-03-02T01:23:52.666Z,88.98
2019-03-02T01:26:24.795Z,88.78
2019-03-02T01:28:56.772Z,89.02
2019-03-02T01:31:28.589Z,89.01
2019-03-02T01:34:00.672Z,88.54
2019-03-02T01:36:33.945Z,88.26
2019-03-02T01:39:08.460Z,87.76
2019-03-02T01:41:41.064Z,87.65
2019-03-02T01:44:16.248Z,87.50
2019-03-02T01:46:46.366Z,86.71
2019-03-02T01:49:18.158Z,86.87
2019-03-02T01:51:49.992Z,87.31
2019-03-02T01:54:22.070Z,87.93
2019-03-02T01:56:53.903Z,88.44
2019-03-02T01:59:25.744Z,88.68
2019-03-02T02:02:00.147Z,88.66
2019-03-02T02:04:31.452Z,88.38
2019-03-02T02:07:03.228Z,88.40
2019-03-02T02:09:40.360Z,88.61
2019-03-02T02:12:08.680Z,89.08
2019-03-02T02:14:40.667Z,89.08
2019-03-02T02:17:14.447Z,89.05
2019-03-02T02:19:45.970Z,89.02
2019-03-02T02:22:19.076Z,89.24
2019-03-02T02:24:51.911Z,89.32
2019-03-02T02:27:23.849Z,89.50
2019-03-02T02:29:55.634Z,89.58
2019-03-02T02:32:27.466Z,89.78
2019-03-02T02:35:01.080Z,90.06
2019-03-02T02:37:36.975Z,90.31
2019-03-02T02:40:08.121Z,90.60
2019-03-02T02:42:43.337Z,90.73
2019-03-02T02:45:16.864Z,91.10
2019-03-02T02:47:51.906Z,91.64
2019-03-02T02:50:29.598Z,91.79
2019-03-02T02:52:56.972Z,91.92
2019-03-02T02:55:28.779Z,91.91
2019-03-02T02:58:00.604Z,91.88
2019-03-02T03:00:32.515Z,91.67
2019-03-02T03:03:04.920Z,90.99
2019-03-02T03:05:36.732Z,90.86
2019-03-02T03:08:08.597Z,90.72
2019-03-02T03:10:41.906Z,90.75
2019-03-02T03:13:13.716Z,90.45
2019-03-02T03:15:51.895Z,90.20
2019-03-02T03:18:23.736Z,89.83
2019-03-02T03:20:55.568Z,89.40
2019-03-02T03:23:27.394Z,89.95
2019-03-02T03:25:59.236Z,89.97
2019-03-02T03:28:32.626Z,89.80
2019-03-02T03:31:04.577Z,89.75
2019-03-02T03:33:43.289Z,89.61
2019-03-02T03:36:09.898Z,89.91
2019-03-02T03:38:43.019Z,89.98
2019-03-02T03:41:16.657Z,89.68
2019-03-02T03:43:51.032Z,89.14
2019-03-02T03:46:26.685Z,89.13
2019-03-02T03:48:58.213Z,88.88
2019-03-02T03:51:36.147Z,89.09
2019-03-02T03:54:11.768Z,89.14
2019-03-02T03:56:44.472Z,89.21
2019-03-02T03:59:18.955Z,89.09
2019-03-02T04:01:56.818Z,89.14
2019-03-02T04:04:30.590Z,88.84
2019-03-02T04:07:09.151Z,88.90
2019-03-02T04:09:46.881Z,88.49
2019-03-02T04:12:24.414Z,88.33
2019-03-02T04:14:56.991Z,88.70
2019-03-02T04:17:28.673Z,88.53
2019-03-02T04:20:00.485Z,88.59
2019-03-02T04:22:32.321Z,88.50
2019-03-02T04:25:04.126Z,88.39
2019-03-02T04:27:35.944Z,88.37
2019-03-02T04:30:08.668Z,88.30
2019-03-02T04:32:40.465Z,88.64
2019-03-02T04:35:12.382Z,88.76
2019-03-02T04:37:45.295Z,88.43
2019-03-02T04:40:17.123Z,88.62
2019-03-02T04:42:50.201Z,89.20
2019-03-02T04:45:22.507Z,89.35
2019-03-02T04:47:54.674Z,89.29
2019-03-02T04:50:27.194Z,88.92
2019-03-02T04:53:01.305Z,88.95
2019-03-02T04:55:33.155Z,88.81
2019-03-02T04:58:04.995Z,88.90
2019-03-02T05:00:36.855Z,89.41
2019-03-02T05:03:08.690Z,89.53
2019-03-02T05:05:43.215Z,89.24
2019-03-02T05:08:14.514Z,89.25
2019-03-02T05:10:46.613Z,88.55
2019-03-02T05:13:18.703Z,88.53
2019-03-02T05:15:52.331Z,88.20
2019-03-02T05:18:24.296Z,88.57
2019-03-02T05:20:56.455Z,88.32
2019-03-02T05:23:30.557Z,88.44
2019-03-02T05:26:04.662Z,88.92
2019-03-02T05:28:39.695Z,88.87
2019-03-02T05:31:13.819Z,89.10
2019-03-02T05:33:46.999Z,89.11
2019-03-02T05:36:18.950Z,88.84
2019-03-02T05:38:50.789Z,88.60
2019-03-02T05:41:22.620Z,88.81
2019-03-02T05:43:54.534Z,88.64
2019-03-02T05:46:26.882Z,88.74
2019-03-02T05:48:58.708Z,88.57
2019-03-02T05:51:30.489Z,88.45
2019-03-02T05:54:06.449Z,88.30
2019-03-02T05:56:36.375Z,87.79
2019-03-02T05:59:08.219Z,87.77
2019-03-02T06:01:40.514Z,87.73
2019-03-02T06:04:13.015Z,87.55
2019-03-02T06:06:44.846Z,87.68
2019-03-02T06:09:17.758Z,87.68
2019-03-02T06:11:49.623Z,87.55
2019-03-02T06:14:21.472Z,87.84
2019-03-02T06:16:53.829Z,87.91
2019-03-02T06:19:30.514Z,88.18
2019-03-02T06:22:32.792Z,88.37
2019-03-02T06:25:05.231Z,88.39
2019-03-02T06:27:37.031Z,88.58
2019-03-02T06:30:11.344Z,88.72
2019-03-02T06:32:43.182Z,88.53
2019-03-02T06:35:14.986Z,88.30
2019-03-02T06:37:46.904Z,88.38
2019-03-02T06:40:20.125Z,88.46
2019-03-02T06:42:53.966Z,88.28
2019-03-02T06:45:26.012Z,88.37
2019-03-02T06:47:57.854Z,88.34
2019-03-02T06:50:31.706Z,88.39
2019-03-02T06:53:03.164Z,88.25
2019-03-02T06:55:35.082Z,88.13
2019-03-02T06:58:06.950Z,88.16
2019-03-02T07:00:38.798Z,88.35
2019-03-02T07:03:11.188Z,88.10
2019-03-02T07:05:43.247Z,88.05
2019-03-02T07:08:15.072Z,88.10
2019-03-02T07:10:46.891Z,87.71
2019-03-02T07:13:21.212Z,87.42
2019-03-02T07:15:52.362Z,87.69
2019-03-02T07:18:52.406Z,87.72
2019-03-02T07:21:24.252Z,87.91
2019-03-02T07:23:56.433Z,87.43
2019-03-02T07:26:28.218Z,87.42
2019-03-02T07:29:00.018Z,87.12
2019-03-02T07:31:31.886Z,87.03
2019-03-02T07:34:04.847Z,86.80
2019-03-02T07:36:37.198Z,86.60
2019-03-02T07:39:09.146Z,86.25
2019-03-02T07:41:41.028Z,86.37
2019-03-02T07:57:13.436Z,86.10
2019-03-02T08:00:46.868Z,85.95
2019-03-02T08:09:25.836Z,84.69
2019-03-02T08:12:00.414Z,84.83
2019-03-02T08:14:49.118Z,84.79
2019-03-02T08:17:09.844Z,84.36
2019-03-02T08:19:48.476Z,84.60
2019-03-02T08:22:19.351Z,84.33
2019-03-02T08:24:51.349Z,83.91
2019-03-02T08:27:23.415Z,83.66
2019-03-02T08:29:57.353Z,83.02
2019-03-02T08:32:29.206Z,82.75
2019-03-02T08:35:02.287Z,82.79
2019-03-02T08:37:35.642Z,82.51
2019-03-02T08:40:08.690Z,82.80
2019-03-02T08:42:40.530Z,83.15
2019-03-02T08:45:15.723Z,83.14
2019-03-02T08:47:47.674Z,82.64
2019-03-02T08:50:19.918Z,82.56
2019-03-02T08:52:52.007Z,81.73
2019-03-02T08:55:23.903Z,81.31
2019-03-02T08:57:57.386Z,81.25
2019-03-02T09:00:29.506Z,80.95
2019-03-02T09:03:01.338Z,81.27
2019-03-02T09:05:45.125Z,81.49
2019-03-02T09:08:06.725Z,82.92
2019-03-02T09:10:38.525Z,81.47
2019-03-02T09:13:10.709Z,81.09
2019-03-02T09:15:43.219Z,80.85
2019-03-02T09:18:16.012Z,80.00
2019-03-02T09:20:47.995Z,79.77
2019-03-02T09:23:19.907Z,79.83
2019-03-02T09:25:51.753Z,79.71
2019-03-02T09:28:23.639Z,78.92
2019-03-02T09:30:58.786Z,77.75
2019-03-02T09:33:29.948Z,77.00
2019-03-02T09:36:01.817Z,75.37
2019-03-02T09:38:33.769Z,74.47
2019-03-02T09:41:05.567Z,73.98
2019-03-02T09:43:37.447Z,72.87
2019-03-02T09:46:09.261Z,71.69
2019-03-02T09:48:41.126Z,70.98
2019-03-02T09:51:13.045Z,70.05
2019-03-02T09:53:44.846Z,69.55
2019-03-02T09:56:16.775Z,69.84
2019-03-02T09:58:48.752Z,71.28
2019-03-02T10:01:20.567Z,71.53
2019-03-02T10:03:52.365Z,72.16
2019-03-02T10:06:25.287Z,72.59
2019-03-02T10:08:57.931Z,72.84
2019-03-02T10:11:29.718Z,73.25
2019-03-02T10:14:01.599Z,72.73
2019-03-02T10:16:33.499Z,73.15
2019-03-02T10:19:05.295Z,72.79
2019-03-02T10:21:37.111Z,72.23
2019-03-02T10:24:08.976Z,71.52
2019-03-02T10:27:09.410Z,70.04
2019-03-02T10:29:44.263Z,68.35
2019-03-02T11:55:53.236Z,54.67
2019-03-02T12:03:28.711Z,53.14
2019-03-02T12:07:02.497Z,53.16
2019-03-02T12:09:49.780Z,54.06
2019-03-02T12:12:51.285Z,53.73
2019-03-02T12:15:54.349Z,55.59
2019-03-02T12:18:51.050Z,57.37
2019-03-02T12:22:04.227Z,56.71
2019-03-02T12:24:59.742Z,55.90
2019-03-02T12:27:55.148Z,55.26
2019-03-02T12:30:52.351Z,53.92
2019-03-02T12:33:47.957Z,52.64
2019-03-02T12:37:01.380Z,53.09
2019-03-02T12:40:04.743Z,53.78
2019-03-02T12:43:04.105Z,54.56
2019-03-02T12:46:16.949Z,54.11
2019-03-02T12:49:19.050Z,54.49
2019-03-02T12:52:06.386Z,55.09
2019-03-02T12:55:32.816Z,53.98
2019-03-02T13:31:09.095Z,50.05
2019-03-02T13:34:38.056Z,50.51
2019-03-02T13:37:33.295Z,50.98
2019-03-02T13:44:31.729Z,52.49
2019-03-02T13:48:08.100Z,52.91
2019-03-02T13:51:49.824Z,53.05
2019-03-02T13:54:29.620Z,51.42
2019-03-02T13:57:43.200Z,51.06
2019-03-02T14:00:40.661Z,51.92
2019-03-02T14:03:33.055Z,51.39
2019-03-02T14:06:24.045Z,51.05
2019-03-02T14:09:27.558Z,51.20
2019-03-02T14:12:19.918Z,51.99
2019-03-02T14:15:12.572Z,51.71
2019-03-02T14:18:03.464Z,52.39
2019-03-02T14:21:04.485Z,51.78
2019-03-02T14:24:03.848Z,52.51
2019-03-02T14:26:44.541Z,54.02
2019-03-02T14:29:47.098Z,55.25
2019-03-02T14:32:40.303Z,55.37
2019-03-02T14:35:21.857Z,56.71
2019-03-02T14:38:12.676Z,57.04
2019-03-02T14:41:12.806Z,55.61
2019-03-02T14:44:02.342Z,56.39
2019-03-02T14:46:52.016Z,55.50
2019-03-02T14:49:45.388Z,55.61
2019-03-02T14:52:43.456Z,55.51
2019-03-02T14:55:51.207Z,55.09
2019-03-02T14:58:53.998Z,55.05
2019-03-02T15:01:54.155Z,55.11
2019-03-02T15:04:57.149Z,55.21
2019-03-02T15:07:47.873Z,55.68
2019-03-02T15:10:26.867Z,55.42
2019-03-02T15:13:16.280Z,56.90
2019-03-02T15:16:11.710Z,57.76
2019-03-02T15:19:18.386Z,57.92
2019-03-02T15:22:00.485Z,58.62
2019-03-02T15:24:54.931Z,58.31
2019-03-02T15:27:48.901Z,59.43
2019-03-02T15:30:45.807Z,59.40
2019-03-02T15:33:46.770Z,60.09
2019-03-02T15:36:43.951Z,61.04
2019-03-02T15:39:39.437Z,61.04
2019-03-02T15:42:49.940Z,61.64
2019-03-02T15:45:39.361Z,62.39
2019-03-02T15:48:33.445Z,62.22
2019-03-02T15:51:23.141Z,63.43
2019-03-02T15:54:09.501Z,63.62
2019-03-02T15:56:56.243Z,63.48
2019-03-02T15:59:57.107Z,64.45
2019-03-02T16:02:42.097Z,65.01
2019-03-02T16:05:39.396Z,65.99
2019-03-02T16:08:33.168Z,66.76
2019-03-02T16:12:25.137Z,67.52
2019-03-02T16:15:57.707Z,67.81
2019-03-02T16:27:07.800Z,68.48
2019-03-02T16:30:34.689Z,68.46
2019-03-02T16:33:27.304Z,68.51
2019-03-02T16:36:07.485Z,69.31
2019-03-02T16:39:08.176Z,69.19
2019-03-02T16:42:19.254Z,69.00
2019-03-02T16:44:59.054Z,69.47
2019-03-02T16:47:48.605Z,70.13
2019-03-02T16:53:57.319Z,70.73
2019-03-02T16:56:45.767Z,71.25
2019-03-02T16:59:44.861Z,70.43
2019-03-02T17:02:48.251Z,71.05
2019-03-02T17:05:51.181Z,71.28
2019-03-02T17:08:36.750Z,72.23
2019-03-02T17:11:19.932Z,72.74
2019-03-02T17:14:15.135Z,72.85
2019-03-02T17:17:17.312Z,73.46
2019-03-02T17:20:01.334Z,73.57
2019-03-02T17:22:50.735Z,74.12
2019-03-02T17:25:37.445Z,73.57
2019-03-02T17:28:31.582Z,73.96
2019-03-02T17:31:36.142Z,74.64
2019-03-02T17:34:25.811Z,75.00
2019-03-02T17:37:36.106Z,75.47
2019-03-02T17:40:42.249Z,75.00
2019-03-02T17:43:31.038Z,75.89
2019-03-02T17:46:15.224Z,76.62
2019-03-02T17:49:10.888Z,76.98
2019-03-02T17:52:00.586Z,76.99
2019-03-02T17:54:42.582Z,76.28
2019-03-02T17:57:33.723Z,77.69
2019-03-02T18:00:19.642Z,78.22
2019-03-02T18:03:12.046Z,78.90
2019-03-02T18:06:05.250Z,78.89
2019-03-02T18:09:06.285Z,79.60
2019-03-02T18:12:07.941Z,80.06
2019-03-02T18:14:59.806Z,80.52
2019-03-02T18:18:07.687Z,80.63
2019-03-02T18:20:44.618Z,80.76
2019-03-02T18:23:18.859Z,80.81
2019-03-02T18:25:51.112Z,80.93
2019-03-02T18:28:23.313Z,81.11
2019-03-02T18:30:57.373Z,81.49
2019-03-02T18:33:48.788Z,81.63
2019-03-02T18:36:22.144Z,81.83
2019-03-02T18:38:55.860Z,82.16
2019-03-02T18:41:28.353Z,81.32
2019-03-02T18:44:00.541Z,81.27
2019-03-02T18:46:33.756Z,81.23
2019-03-02T18:49:20.150Z,81.42
2019-03-02T18:52:23.517Z,81.61
2019-03-02T18:55:11.653Z,81.44
2019-03-02T18:57:46.600Z,80.48
2019-03-02T19:00:24.142Z,80.52
2019-03-02T19:03:14.522Z,81.78
2019-03-02T19:05:51.674Z,82.49
2019-03-02T19:08:27.862Z,82.92
2019-03-02T19:11:05.094Z,82.29
2019-03-02T19:13:40.694Z,82.36
2019-03-02T19:16:11.228Z,82.48
2019-03-02T19:18:43.419Z,82.92
2019-03-02T19:21:24.415Z,83.22
2019-03-02T19:24:04.644Z,83.23
2019-03-02T19:26:37.324Z,83.00
2019-03-02T19:30:05.310Z,82.66
2019-03-02T19:32:46.828Z,83.39
2019-03-02T19:39:25.803Z,82.53
2019-03-02T19:42:46.281Z,81.99
2019-03-02T19:46:58.914Z,82.38
2019-03-02T22:50:22.328Z,90.24
2019-03-02T22:52:54.526Z,90.15
2019-03-02T22:55:27.750Z,89.74
2019-03-02T22:58:00.853Z,89.55
2019-03-02T23:01:23.879Z,89.28
2019-03-02T23:03:57.469Z,89.19
2019-03-02T23:06:29.428Z,89.03
2019-03-02T23:09:01.330Z,88.94
2019-03-02T23:11:34.785Z,89.07
2019-03-02T23:14:06.749Z,89.64
2019-03-02T23:16:38.685Z,90.51
2019-03-02T23:19:10.534Z,90.87
2019-03-02T23:21:42.414Z,92.84
2019-03-02T23:24:14.288Z,94.14
2019-03-02T23:26:46.237Z,94.94
2019-03-02T23:29:18.197Z,95.31
2019-03-02T23:31:50.241Z,95.62
2019-03-02T23:34:22.169Z,95.76
2019-03-02T23:36:54.153Z,95.87
2019-03-02T23:39:26.105Z,96.22
2019-03-02T23:41:57.993Z,96.12
2019-03-02T23:44:29.817Z,95.60
2019-03-02T23:47:01.796Z,94.94
2019-03-02T23:49:33.730Z,94.11
2019-03-02T23:52:05.562Z,93.62
2019-03-02T23:54:37.477Z,93.38
2019-03-02T23:57:09.342Z,92.91
2019-03-02T23:59:41.345Z,92.53
